Time;durP1;ratioP1;P1;durP2;ratioP2;P2;SDS_P1;SDS_P2;PMS_P1;PMS_P2;Temp;Humidity;BMP_temperature;BMP_pressure;BME280_temperature;BME280_humidity;BME280_pressure;Samples;Min_cycle;Max_cycle;Signal;HPM_P1;HPM_P2
2022/06/27 00:00:34;;;;;;;40.85;28.40;;;;;;;-143.10;100.00;50899.09;5044135;28;20376;-67
2022/06/27 00:03:29;;;;;;;36.78;26.83;;;;;;;-143.10;100.00;50912.78;5043103;28;20369;-68
2022/06/27 00:06:04;;;;;;;38.30;27.30;;;;;;;-143.10;100.00;50897.13;5042838;28;20063;-68
2022/06/27 00:08:59;;;;;;;41.30;27.02;;;;;;;-143.10;100.00;50893.22;5028179;28;20111;-67
2022/06/27 00:11:35;;;;;;;46.53;29.65;;;;;;;-143.10;100.00;50891.25;5042735;28;20060;-68
2022/06/27 00:14:24;;;;;;;38.00;28.33;;;;;;;-143.10;100.00;50922.59;5042979;28;20053;-68
2022/06/27 00:17:13;;;;;;;45.33;29.58;;;;;;;-143.10;100.00;50887.34;5043013;28;20059;-68
2022/06/27 00:19:55;;;;;;;38.22;28.38;;;;;;;-143.10;100.00;50903.00;5043579;28;20075;-68
2022/06/27 00:22:45;;;;;;;47.92;31.50;;;;;;;-143.10;100.00;50885.38;5044223;28;20052;-68
2022/06/27 00:25:27;;;;;;;43.42;29.80;;;;;;;-143.10;100.00;50875.59;5046549;28;20046;-68
2022/06/27 00:28:16;;;;;;;47.25;31.05;;;;;;;-143.10;100.00;50881.47;5026908;28;20077;-68
2022/06/27 00:31:05;;;;;;;49.72;29.63;;;;;;;-143.10;100.00;50877.56;5027050;28;20854;-69
2022/06/27 00:33:47;;;;;;;52.92;32.67;;;;;;;-143.10;100.00;50885.38;5027065;28;20060;-68
2022/06/27 00:36:36;;;;;;;47.80;33.50;;;;;;;-143.10;100.00;50901.03;5026900;28;20053;-69
2022/06/27 00:39:18;;;;;;;47.72;33.05;;;;;;;-143.10;100.00;50893.22;5008979;28;20041;-68
2022/06/27 00:42:07;;;;;;;48.47;31.17;;;;;;;-143.10;100.00;50901.03;5027059;28;20072;-68
2022/06/27 00:44:50;;;;;;;52.20;31.85;;;;;;;-143.10;100.00;50879.50;5008971;28;20049;-69
2022/06/27 00:47:39;;;;;;;51.88;32.03;;;;;;;-143.10;100.00;50904.97;5028624;28;20755;-68
2022/06/27 00:50:21;;;;;;;42.75;32.30;;;;;;;-143.10;100.00;50903.00;5028573;28;20133;-68
2022/06/27 00:53:10;;;;;;;54.83;32.63;;;;;;;-143.10;100.00;50901.03;5030992;28;20148;-68
2022/06/27 00:55:53;;;;;;;58.63;34.78;;;;;;;-143.10;100.00;50912.78;5030296;28;20048;-68
2022/06/27 00:58:42;;;;;;;54.13;36.03;;;;;;;-143.10;100.00;50918.66;5046182;28;20115;-69
2022/06/27 01:01:24;;;;;;;56.63;33.78;;;;;;;-143.10;100.00;50881.47;5029412;28;20135;-68
2022/06/27 01:04:14;;;;;;;52.60;33.20;;;;;;;-143.10;100.00;50895.16;5028270;28;20067;-68
2022/06/27 01:06:58;;;;;;;54.08;35.47;;;;;;;-143.10;100.00;50901.03;5046383;28;20049;-68
2022/06/27 01:09:56;;;;;;;55.47;35.47;;;;;;;-143.10;100.00;50897.13;5046344;28;20079;-68
2022/06/27 01:12:39;;;;;;;57.88;35.30;;;;;;;-143.10;100.00;50897.13;5059236;28;20053;-68
2022/06/27 01:15:28;;;;;;;56.85;37.58;;;;;;;-143.10;100.00;50895.16;5048288;28;20578;-69
2022/06/27 01:18:10;;;;;;;50.47;35.28;;;;;;;-143.10;100.00;50889.31;5066821;28;20076;-68
2022/06/27 01:20:59;;;;;;;58.05;37.03;;;;;;;-143.10;100.00;50897.13;5018857;28;20106;-68
2022/06/27 01:23:48;;;;;;;65.53;38.97;;;;;;;-143.10;100.00;50901.03;5046207;28;20052;-68
2022/06/27 01:26:33;;;;;;;61.08;39.33;;;;;;;-143.10;100.00;50879.50;5028024;28;20134;-68
2022/06/27 01:29:25;;;;;;;60.22;38.63;;;;;;;-143.10;100.00;50897.13;5027814;28;20045;-68
2022/06/27 01:32:07;;;;;;;56.22;36.42;;;;;;;-143.10;100.00;50916.72;5028584;28;20049;-69
2022/06/27 01:34:56;;;;;;;52.03;36.63;;;;;;;-143.10;100.00;50875.59;5010461;28;20049;-68
2022/06/27 01:37:38;;;;;;;53.83;34.53;;;;;;;-143.10;100.00;50920.63;5020956;28;20055;-69
2022/06/27 01:40:27;;;;;;;56.92;36.35;;;;;;;-143.10;100.00;50897.13;5027636;28;20152;-69
2022/06/27 01:43:24;;;;;;;55.10;36.03;;;;;;;-143.10;100.00;50897.13;5027664;28;20059;-69
2022/06/27 01:46:00;;;;;;;50.33;35.88;;;;;;;-143.10;100.00;50924.53;5028069;28;20476;-69
2022/06/27 01:48:49;;;;;;;49.55;33.25;;;;;;;-143.10;100.00;50912.78;5024141;28;20084;-69
2022/06/27 01:51:38;;;;;;;55.25;34.63;;;;;;;-143.10;100.00;50901.03;5040592;28;20147;-69
2022/06/27 01:54:28;;;;;;;48.03;32.45;;;;;;;-143.10;99.56;50883.44;5064970;28;20080;-68
2022/06/27 01:57:11;;;;;;;;;;;;;;;-143.10;99.57;50895.16;5047914;28;20036;-69
2022/06/27 02:00:05;;;;;;;51.90;33.40;;;;;;;-143.10;98.02;50908.88;5015199;28;20368;-68
2022/06/27 02:03:13;;;;;;;59.05;33.53;;;;;;;-143.10;97.79;50893.22;5016822;28;20056;-69
2022/06/27 02:06:02;;;;;;;49.67;32.30;;;;;;;-143.10;96.67;50889.31;5011342;28;20045;-69
2022/06/27 02:08:48;;;;;;;51.15;34.45;;;;;;;-143.10;96.81;50885.38;5024110;28;20056;-68
2022/06/27 02:11:40;;;;;;;70.25;34.22;;;;;;;-143.10;96.48;50881.47;5027154;28;20095;-69
2022/06/27 02:14:31;;;;;;;41.90;32.67;;;;;;;-143.10;95.44;50871.69;5023295;28;20060;-70
2022/06/27 02:17:13;;;;;;;45.33;32.28;;;;;;;-143.10;95.70;50910.84;5022907;28;20572;-68
2022/06/27 02:20:02;;;;;;;49.15;31.90;;;;;;;-143.10;91.82;50910.84;5016117;28;20108;-69
2022/06/27 02:22:44;;;;;;;52.40;32.13;;;;;;;-143.10;91.44;50891.25;5005295;28;20120;-68
2022/06/27 02:25:33;;;;;;;48.00;32.25;;;;;;;-143.10;91.64;50916.72;5002984;28;20046;-68
2022/06/27 02:28:17;;;;;;;48.45;32.03;;;;;;;-143.10;90.34;50893.22;5006518;28;20512;-69
2022/06/27 02:31:08;;;;;;;55.42;32.95;;;;;;;-143.10;90.70;50903.00;5006108;28;20505;-69
2022/06/27 02:33:52;;;;;;;49.80;33.63;;;;;;;-143.10;88.90;50930.41;5023300;28;20056;-69
2022/06/27 02:36:44;;;;;;;50.95;33.08;;;;;;;-143.10;89.52;50889.31;5023159;28;20045;-69
2022/06/27 02:39:36;;;;;;;51.30;32.17;;;;;;;-143.10;87.95;50893.22;5005744;28;20124;-68
2022/06/27 02:42:20;;;;;;;52.88;33.28;;;;;;;-143.10;88.01;50863.84;5023509;28;20041;-69
2022/06/27 02:45:09;;;;;;;47.55;31.70;;;;;;;-143.10;89.43;50901.03;5022935;28;20038;-68
2022/06/27 02:47:55;;;;;;;52.88;32.58;;;;;;;-143.10;88.25;50848.19;5023348;28;20056;-69
2022/06/27 02:50:49;;;;;;;44.70;32.53;;;;;;;-143.10;88.38;50885.38;5022452;28;20092;-69
2022/06/27 02:53:40;;;;;;;59.50;35.63;;;;;;;-143.10;87.44;50879.50;5021627;28;20041;-69
2022/06/27 02:56:56;;;;;;;47.17;30.70;;;;;;;-143.10;83.76;50883.44;5022085;28;20046;-69
2022/06/27 02:59:48;;;;;;;55.35;31.35;;;;;;;-143.10;84.72;50879.50;5021498;28;20129;-69
2022/06/27 03:02:44;;;;;;;48.38;31.55;;;;;;;-143.10;85.59;50887.34;5024879;28;20060;-70
2022/06/27 03:05:41;;;;;;;47.17;29.55;;;;;;;-143.10;84.70;50885.38;4990590;28;20072;-70
2022/06/27 03:08:17;;;;;;;48.70;28.67;;;;;;;-143.10;82.43;50881.47;5006858;28;20117;-69
2022/06/27 03:11:12;;;;;;;;;;;;;;;-143.10;81.99;50885.38;5004373;28;20141;-69
2022/06/27 03:13:49;;;;;;;46.28;27.85;;;;;;;-143.10;79.89;50908.88;5020157;28;19920;-69
2022/06/27 03:16:37;;;;;;;;;;;;;;;-143.10;79.02;50906.91;5016745;28;20052;-68
2022/06/27 03:19:20;;;;;;;40.08;24.77;;;;;;;-143.10;79.83;50865.81;4999849;28;19972;-70
2022/06/27 03:22:29;;;;;;;49.13;26.75;;;;;;;-143.10;78.23;50873.63;4996645;28;20187;-68
2022/06/27 03:25:12;;;;;;;39.38;26.00;;;;;;;-143.10;76.84;50857.97;4997694;28;20095;-70
2022/06/27 03:28:02;;;;;;;41.78;24.15;;;;;;;-143.10;75.69;50865.81;5001158;28;20051;-69
2022/06/27 03:30:45;;;;;;;35.75;25.92;;;;;;;-143.10;75.93;50848.19;5023985;28;20053;-69
2022/06/27 03:33:44;;;;;;;41.95;24.20;;;;;;;-143.10;75.31;50887.34;5005321;28;20045;-69
2022/06/27 03:36:44;;;;;;;35.10;23.50;;;;;;;-143.10;76.40;50842.31;5014870;28;20060;-69
2022/06/27 03:39:34;;;;;;;39.97;24.15;;;;;;;-143.10;76.68;50861.88;5005420;28;20126;-69
2022/06/27 03:42:23;;;;;;;32.67;22.33;;;;;;;-143.10;73.82;50857.97;5005057;28;20445;-69
2022/06/27 03:45:05;;;;;;;32.58;21.15;;;;;;;-143.10;74.33;50865.81;5006517;28;20049;-69
2022/06/27 03:48:00;;;;;;;33.33;21.60;;;;;;;-143.10;73.27;50865.81;5007440;28;20057;-70
2022/06/27 03:51:01;;;;;;;29.15;21.70;;;;;;;-143.10;72.66;50877.56;5004075;28;20052;-70
2022/06/27 03:53:52;;;;;;;38.13;21.30;;;;;;;-143.10;73.40;50869.72;5002976;28;20075;-70
2022/06/27 03:56:41;;;;;;;34.08;22.58;;;;;;;-143.10;73.88;50865.81;5000855;28;20145;-70
2022/06/27 03:59:24;;;;;;;31.40;21.23;;;;;;;-143.10;71.70;50877.56;5010483;28;20060;-70
2022/06/27 04:02:16;;;;;;;30.40;20.77;;;;;;;-143.10;70.92;50857.97;5009847;28;20087;-70
2022/06/27 04:05:34;;;;;;;36.95;20.98;;;;;;;-143.10;72.18;50869.72;5047579;28;20071;-69
2022/06/27 04:08:23;;;;;;;40.60;21.58;;;;;;;-143.10;70.72;50863.84;5029010;28;20056;-70
2022/06/27 04:11:06;;;;;;;26.55;20.40;;;;;;;-143.10;69.51;50838.41;5013376;28;20045;-70
2022/06/27 04:13:59;;;;;;;33.17;19.85;;;;;;;-143.10;70.43;50869.72;5044965;28;20190;-71
2022/06/27 04:16:48;;;;;;;35.28;21.90;;;;;;;-143.10;71.08;50903.00;5051802;28;20091;-70
2022/06/27 04:19:59;;;;;;;31.55;21.10;;;;;;;-143.10;70.48;50863.84;4993594;28;20106;-70
2022/06/27 04:23:00;;;;;;;30.60;19.58;;;;;;;-143.10;67.61;50867.75;5047922;28;20558;-70
2022/06/27 04:26:01;;;;;;;30.88;17.48;;;;;;;-143.10;71.55;50859.94;5065544;28;20064;-69
2022/06/27 04:28:51;;;;;;;30.85;18.85;;;;;;;-143.10;67.50;50881.47;5047420;28;20052;-70
2022/06/27 04:31:34;;;;;;;28.55;19.35;;;;;;;-143.10;68.49;50891.25;5065290;28;20056;-70
2022/06/27 04:34:23;;;;;;;30.58;20.02;;;;;;;-143.10;67.81;50869.72;5034666;28;20508;-70
2022/06/27 04:37:12;;;;;;;25.27;18.58;;;;;;;-143.10;69.61;50863.84;5028713;28;20059;-71
2022/06/27 04:40:23;;;;;;;31.98;19.00;;;;;;;-143.10;67.51;50869.72;5027852;28;20086;-70
2022/06/27 04:43:12;;;;;;;36.38;18.95;;;;;;;-143.10;65.57;50877.56;5027890;28;20060;-72
2022/06/27 04:45:54;;;;;;;31.75;17.77;;;;;;;-143.10;68.84;50889.31;5028101;28;20041;-70
2022/06/27 04:49:01;;;;;;;28.55;18.48;;;;;;;-143.10;69.84;50838.41;5045893;28;20100;-71
2022/06/27 04:51:43;;;;;;;26.85;19.42;;;;;;;-143.10;62.60;50873.63;5027923;28;20473;-70
2022/06/27 04:54:32;;;;;;;30.98;18.58;;;;;;;-143.10;67.78;50861.88;5045210;28;20380;-70
2022/06/27 04:57:15;;;;;;;;;;;;;;;-143.10;65.08;50885.38;5012177;28;20433;-69
2022/06/27 05:00:14;;;;;;;24.65;15.85;;;;;;;-143.10;64.45;50869.72;5047013;28;19931;-70
2022/06/27 05:03:08;;;;;;;27.80;17.45;;;;;;;-143.10;65.30;50857.97;5045841;28;20416;-70
2022/06/27 05:06:18;;;;;;;23.77;17.25;;;;;;;-143.10;61.97;50846.22;5030724;28;20492;-70
2022/06/27 05:09:09;;;;;;;28.60;17.88;;;;;;;-143.10;64.05;50850.16;5026580;28;20049;-70
2022/06/27 05:11:58;;;;;;;30.00;19.30;;;;;;;-143.10;60.77;50842.31;5028601;28;20523;-71
2022/06/27 05:14:40;;;;;;;29.75;17.17;;;;;;;-143.10;59.78;50865.81;5008945;28;20459;-70
2022/06/27 05:17:30;;;;;;;27.65;16.52;;;;;;;-143.10;59.72;50854.06;5008177;28;20059;-70
2022/06/27 05:20:12;;;;;;;23.80;17.63;;;;;;;-143.10;63.29;50842.31;5008138;28;20087;-69
2022/06/27 05:23:01;;;;;;;39.13;19.08;;;;;;;-143.10;60.86;50846.22;5026275;28;20131;-69
2022/06/27 05:25:50;;;;;;;27.85;17.85;;;;;;;-143.10;59.41;50840.34;5021856;28;20136;-70
2022/06/27 05:28:32;;;;;;;28.63;18.88;;;;;;;-143.10;62.13;50854.06;5028303;28;20045;-69
2022/06/27 05:31:21;;;;;;;29.65;19.73;;;;;;;-143.10;62.49;50865.81;5027304;28;20363;-69
2022/06/27 05:34:10;;;;;;;25.48;17.75;;;;;;;-143.10;59.88;50859.94;5027513;28;20049;-70
2022/06/27 05:36:52;;;;;;;24.23;19.20;;;;;;;-143.10;59.41;50881.47;5027753;28;20164;-66
2022/06/27 05:39:44;;;;;;;30.42;18.98;;;;;;;-143.10;61.50;50846.22;5045114;28;20499;-66
2022/06/27 05:42:26;;;;;;;33.08;19.73;;;;;;;-143.10;59.83;50854.06;5029024;28;20060;-67
2022/06/27 05:45:16;;;;;;;27.30;18.17;;;;;;;-143.10;59.52;50877.56;5027288;28;20114;-67
2022/06/27 05:48:25;;;;;;;22.45;17.05;;;;;;;-143.10;61.81;50826.66;5042262;28;20049;-67
2022/06/27 05:51:29;;;;;;;40.25;18.95;;;;;;;-143.10;60.79;50854.06;5026923;28;20045;-67
2022/06/27 05:54:12;;;;;;;31.00;19.35;;;;;;;-143.10;62.59;50830.56;5027414;28;20575;-66
2022/06/27 05:57:01;;;;;;;29.30;18.52;;;;;;;-143.10;63.04;50842.31;5026754;28;20098;-67
2022/06/27 05:59:46;;;;;;;32.78;20.73;;;;;;;-143.10;61.39;50836.44;5027679;28;20461;-66
2022/06/27 06:02:36;;;;;;;26.10;18.35;;;;;;;-143.10;60.55;50820.78;5045165;28;20049;-67
2022/06/27 06:05:29;;;;;;;29.95;18.75;;;;;;;-143.10;64.09;50822.75;5029122;28;20492;-67
2022/06/27 06:08:26;;;;;;;30.42;19.20;;;;;;;-143.10;64.27;50828.59;5026473;28;20056;-67
2022/06/27 06:11:15;;;;;;;26.05;17.50;;;;;;;-143.10;63.06;50838.41;5027072;28;20074;-66
2022/06/27 06:14:04;;;;;;;25.52;18.02;;;;;;;-143.10;59.93;50857.97;5029686;28;20464;-67
2022/06/27 06:16:47;;;;;;;28.93;17.97;;;;;;;-143.10;60.83;50854.06;5026530;28;20106;-66
2022/06/27 06:19:36;;;;;;;26.15;17.70;;;;;;;-143.10;64.51;50846.22;4990740;28;20180;-68
2022/06/27 06:22:18;;;;;;;26.38;18.33;;;;;;;-143.10;59.63;50838.41;5024110;28;20140;-67
2022/06/27 06:25:07;;;;;;;34.42;18.55;;;;;;;-143.10;65.00;50852.09;5007731;28;20115;-67
2022/06/27 06:27:50;;;;;;;31.47;17.60;;;;;;;-143.10;59.53;50842.31;5006600;28;20397;-67
2022/06/27 06:30:41;;;;;;;27.00;18.17;;;;;;;-143.10;60.48;50832.53;5023288;28;20068;-67
2022/06/27 06:33:24;;;;;;;23.65;17.15;;;;;;;-143.10;60.34;50856.03;5007029;28;20051;-67
2022/06/27 06:36:13;;;;;;;25.27;16.15;;;;;;;-143.10;60.13;50846.22;5007038;28;20049;-67
2022/06/27 06:38:58;;;;;;;24.60;17.17;;;;;;;-143.10;63.08;50838.41;5007511;28;20053;-66
2022/06/27 06:41:47;;;;;;;28.13;17.52;;;;;;;-143.10;60.99;50830.56;5025683;28;20045;-67
2022/06/27 06:44:29;;;;;;;26.13;17.37;;;;;;;-143.10;62.70;50826.66;5023470;28;20073;-66
2022/06/27 06:47:52;;;;;;;31.42;18.02;;;;;;;-143.10;65.33;50850.16;5009923;28;20044;-68
2022/06/27 06:50:37;;;;;;;30.42;17.65;;;;;;;-143.10;58.11;50838.41;5026696;28;20370;-67
2022/06/27 06:53:26;;;;;;;26.33;17.60;;;;;;;-143.10;58.43;50865.81;5044200;28;20061;-67
2022/06/27 06:56:08;;;;;;;29.77;17.83;;;;;;;-143.10;62.71;50852.09;5043625;28;20098;-66
2022/06/27 06:58:57;;;;;;;25.33;17.10;;;;;;;-143.10;61.04;50857.97;5028452;28;20474;-66
2022/06/27 07:01:49;;;;;;;28.52;16.75;;;;;;;-143.10;60.25;50854.06;5044064;28;20065;-68
2022/06/27 07:04:39;;;;;;;26.35;14.82;;;;;;;-143.10;59.12;50834.47;5044035;28;20044;-67
2022/06/27 07:07:28;;;;;;;30.05;16.45;;;;;;;-143.10;61.01;50832.53;5028072;28;20047;-65
2022/06/27 07:10:25;;;;;;;25.13;15.98;;;;;;;-143.10;59.41;50840.34;5028125;28;20049;-66
2022/06/27 07:13:03;;;;;;;24.38;15.95;;;;;;;-143.10;59.21;50834.47;5052377;28;20051;-66
2022/06/27 07:15:58;;;;;;;25.63;16.40;;;;;;;-143.10;64.22;50820.78;5064283;28;20427;-68
2022/06/27 07:18:35;;;;;;;31.88;16.25;;;;;;;-143.10;59.22;50850.16;5063426;28;20044;-66
2022/06/27 07:21:31;;;;;;;;;;;;;;;-143.10;65.15;50834.47;5052442;28;20052;-66
2022/06/27 07:24:09;;;;;;;23.92;15.93;;;;;;;-143.10;58.56;50861.88;5043437;28;19959;-66
2022/06/27 07:27:05;;;;;;;29.05;16.73;;;;;;;-143.10;58.92;50850.16;5044298;28;20472;-67
2022/06/27 07:29:41;;;;;;;23.63;16.67;;;;;;;-143.10;61.30;50857.97;5043361;28;20695;-67
2022/06/27 07:32:39;;;;;;;27.23;17.13;;;;;;;-143.10;58.01;50836.44;5042614;28;20069;-67
2022/06/27 07:35:16;;;;;;;26.40;16.50;;;;;;;-143.10;64.13;50832.53;5024291;28;20374;-66
2022/06/27 07:38:12;;;;;;;26.05;17.83;;;;;;;-143.10;59.31;50830.56;5039623;28;20044;-67
2022/06/27 07:40:48;;;;;;;29.70;18.10;;;;;;;-143.10;57.43;50840.34;5040596;28;20052;-67
2022/06/27 07:43:37;;;;;;;24.52;17.33;;;;;;;-143.10;62.25;50814.91;5040670;28;20059;-66
2022/06/27 07:46:20;;;;;;;25.08;17.60;;;;;;;-143.10;62.16;50838.41;5041317;28;20170;-66
2022/06/27 07:49:09;;;;;;;25.90;16.85;;;;;;;-143.10;59.65;50838.41;5043043;28;20056;-66
2022/06/27 07:51:51;;;;;;;27.55;16.83;;;;;;;-143.10;58.20;50885.38;5044310;28;20041;-66
2022/06/27 07:54:40;;;;;;;28.60;16.50;;;;;;;-143.10;64.19;50854.06;5043508;28;20494;-66
2022/06/27 07:57:30;;;;;;;25.67;16.48;;;;;;;-143.10;59.85;50822.75;5042947;28;20061;-66
2022/06/27 08:00:12;;;;;;;;;;;;;;;-143.10;59.43;50856.03;5043211;28;20052;-67
2022/06/27 08:03:36;;;;;;;23.15;16.70;;;;;;;-143.10;57.71;50822.75;5043126;28;19924;-67
2022/06/27 08:06:15;;;;;;;35.10;18.65;;;;;;;-143.10;56.11;50828.59;5042873;28;20045;-67
2022/06/27 08:09:12;;;;;;;30.08;17.33;;;;;;;-143.10;56.23;50846.22;5022517;28;20053;-66
2022/06/27 08:11:48;;;;;;;28.02;18.52;;;;;;;-143.10;56.49;50844.28;5022967;28;20049;-68
2022/06/27 08:14:44;;;;;;;;;;;;;;;-143.10;56.74;50816.88;5002746;28;20097;-66
2022/06/27 08:17:23;;;;;;;30.13;17.42;;;;;;;-143.10;60.17;50834.47;5001025;28;20424;-66
2022/06/27 08:20:13;;;;;;;29.27;16.88;;;;;;;-143.10;58.88;50861.88;5020554;28;20496;-67
2022/06/27 08:22:56;;;;;;;28.63;17.13;;;;;;;-143.10;58.52;50842.31;5023553;28;20129;-66
2022/06/27 08:25:52;;;;;;;30.67;16.73;;;;;;;-143.10;56.27;50822.75;5016864;28;20136;-67
2022/06/27 08:28:28;;;;;;;25.35;17.45;;;;;;;-143.10;58.12;50842.31;5008317;28;20442;-66
2022/06/27 08:31:25;;;;;;;20.77;16.90;;;;;;;-143.10;63.66;50811.00;5006330;28;20045;-67
2022/06/27 08:34:02;;;;;;;28.35;17.67;;;;;;;-143.10;56.58;50848.19;5023652;28;20103;-67
2022/06/27 08:36:57;;;;;;;31.80;17.60;;;;;;;-143.10;58.67;50844.28;5021991;28;20045;-66
2022/06/27 08:39:34;;;;;;;24.30;16.70;;;;;;;-143.10;57.00;50836.44;5022022;28;20053;-66
2022/06/27 08:42:24;;;;;;;;;;;;;;;-143.10;58.61;50816.88;5021601;28;20052;-66
2022/06/27 08:45:23;;;;;;;24.80;16.98;;;;;;;-143.10;57.19;50834.47;5023317;28;20032;-66
2022/06/27 08:48:09;;;;;;;25.92;17.60;;;;;;;-143.10;56.03;50869.72;5025521;28;20045;-67
2022/06/27 08:50:59;;;;;;;25.60;17.33;;;;;;;-143.10;56.09;50811.00;5003707;28;20049;-67
2022/06/27 08:53:42;;;;;;;27.77;17.45;;;;;;;-143.10;57.23;50820.78;5024494;28;20472;-66
2022/06/27 08:56:32;;;;;;;23.95;17.20;;;;;;;-143.10;57.73;50869.72;5025853;28;20095;-67
2022/06/27 08:59:21;;;;;;;26.00;17.10;;;;;;;-143.10;56.79;50801.19;5010629;28;20126;-67
2022/06/27 09:02:03;;;;;;;27.35;16.88;;;;;;;-143.10;58.93;50818.81;5007865;28;20051;-67
2022/06/27 09:04:58;;;;;;;24.13;17.30;;;;;;;-143.10;60.92;50834.47;5026053;28;20041;-67
2022/06/27 09:07:53;;;;;;;30.40;18.90;;;;;;;-143.10;56.61;50814.91;5029224;27;20486;-66
2022/06/27 09:10:50;;;;;;;28.45;17.60;;;;;;;-143.10;56.41;50838.41;5019069;28;20053;-67
2022/06/27 09:13:27;;;;;;;37.63;18.30;;;;;;;-143.10;57.05;50867.75;5036794;28;20048;-67
2022/06/27 09:16:16;;;;;;;31.65;17.38;;;;;;;-143.10;57.81;50818.81;5029598;28;20634;-67
2022/06/27 09:19:05;;;;;;;31.27;18.35;;;;;;;-143.10;60.72;50822.75;5045705;28;20103;-67
2022/06/27 09:22:10;;;;;;;34.20;18.02;;;;;;;-143.10;59.46;50834.47;5045783;28;20056;-67
2022/06/27 09:25:20;;;;;;;33.58;18.10;;;;;;;-143.10;57.70;50830.56;5045891;28;20037;-67
2022/06/27 09:28:04;;;;;;;28.77;18.40;;;;;;;-143.10;62.38;50811.00;5046856;28;20051;-65
2022/06/27 09:30:55;;;;;;;28.83;18.67;;;;;;;-143.10;55.89;50838.41;5045604;28;20045;-66
2022/06/27 09:33:41;;;;;;;27.73;17.90;;;;;;;-143.10;55.81;50803.16;5045784;28;20064;-67
2022/06/27 09:36:34;;;;;;;24.73;18.92;;;;;;;-143.10;56.05;50840.34;5045352;28;20052;-67
2022/06/27 09:39:29;;;;;;;30.45;17.85;;;;;;;-143.10;56.98;50854.06;5044857;28;20044;-66
2022/06/27 09:42:20;;;;;;;33.13;18.35;;;;;;;-143.10;55.78;50818.81;5045224;28;20053;-66
2022/06/27 09:45:05;;;;;;;37.70;19.05;;;;;;;-143.10;58.60;50846.22;5045592;28;20051;-67
2022/06/27 09:47:56;;;;;;;27.02;17.83;;;;;;;-143.10;54.71;50832.53;5045010;28;20060;-66
2022/06/27 09:50:41;;;;;;;29.92;18.27;;;;;;;-143.10;58.56;50850.16;5045049;28;20124;-66
2022/06/27 09:53:33;;;;;;;31.90;19.55;;;;;;;-143.10;58.97;50834.47;5045209;28;20084;-67
2022/06/27 09:56:20;;;;;;;27.95;19.55;;;;;;;-143.10;63.08;50834.47;5044425;28;20543;-66
2022/06/27 09:59:09;;;;;;;30.33;18.95;;;;;;;-143.10;57.91;50832.53;5045222;28;20442;-67
2022/06/27 10:02:00;;;;;;;29.88;18.73;;;;;;;-143.10;61.05;50852.09;5045239;28;20049;-66
2022/06/27 10:04:51;;;;;;;28.15;19.23;;;;;;;-143.10;63.64;50857.97;5045114;28;20053;-66
2022/06/27 10:07:34;;;;;;;27.52;18.98;;;;;;;-143.10;61.81;50818.81;5029713;28;20044;-66
2022/06/27 10:10:29;;;;;;;31.33;18.67;;;;;;;-143.10;64.19;50857.97;5044953;27;20106;-66
2022/06/27 10:13:18;;;;;;;37.30;20.45;;;;;;;-143.10;60.68;50830.56;5044759;28;20546;-66
2022/06/27 10:16:18;;;;;;;29.15;19.60;;;;;;;-143.10;57.64;50822.75;5044879;28;20064;-66
2022/06/27 10:19:14;;;;;;;27.27;18.52;;;;;;;-143.10;61.42;50844.28;5043218;28;20811;-66
2022/06/27 10:21:57;;;;;;;27.25;18.38;;;;;;;-143.10;62.17;50838.41;5026302;28;20040;-65
2022/06/27 10:24:46;;;;;;;28.25;19.05;;;;;;;-143.10;61.69;50834.47;5029306;28;20078;-65
2022/06/27 10:27:38;;;;;;;31.20;20.85;;;;;;;-143.10;64.27;50842.31;5044307;28;20060;-67
2022/06/27 10:30:51;;;;;;;28.17;18.92;;;;;;;-143.10;62.93;50830.56;5044556;28;20049;-67
2022/06/27 10:33:33;;;;;;;36.28;18.98;;;;;;;-143.10;59.70;50828.59;5036581;28;20051;-67
2022/06/27 10:36:22;;;;;;;27.25;18.58;;;;;;;-143.10;63.13;50830.56;5044176;28;20044;-66
2022/06/27 10:39:04;;;;;;;27.33;18.95;;;;;;;-143.10;63.09;50844.28;5044171;28;20076;-66
2022/06/27 10:41:54;;;;;;;27.20;18.98;;;;;;;-143.10;59.30;50826.66;5029116;28;20548;-65
2022/06/27 10:44:38;;;;;;;32.63;18.55;;;;;;;-143.10;65.96;50852.09;5044193;28;20119;-65
2022/06/27 10:47:33;;;;;;;30.15;18.23;;;;;;;-143.10;61.62;50861.88;5028466;28;20056;-66
2022/06/27 10:50:24;;;;;;;31.42;18.17;;;;;;;-143.10;62.71;50826.66;5044302;28;20102;-66
2022/06/27 10:53:26;;;;;;;29.98;17.50;;;;;;;-143.10;66.50;50838.41;5044126;28;20477;-66
2022/06/27 10:56:35;;;;;;;31.70;19.23;;;;;;;-143.10;59.05;50826.66;5043253;28;20045;-66
2022/06/27 10:59:17;;;;;;;28.33;18.38;;;;;;;-143.10;60.30;50844.28;5043883;28;20431;-67
2022/06/27 11:02:06;;;;;;;35.28;18.63;;;;;;;-143.10;59.48;50818.81;5044035;28;20128;-66
2022/06/27 11:04:48;;;;;;;27.83;17.20;;;;;;;-143.10;58.74;50848.19;5044115;28;20056;-66
2022/06/27 11:07:37;;;;;;;26.48;17.63;;;;;;;-143.10;60.55;50836.44;5043847;28;20049;-66
2022/06/27 11:10:33;;;;;;;28.45;17.98;;;;;;;-143.10;59.94;50830.56;5029399;28;20049;-66
2022/06/27 11:13:48;;;;;;;26.88;17.17;;;;;;;-143.10;59.63;50854.06;5043637;28;20099;-66
2022/06/27 11:16:39;;;;;;;26.70;17.30;;;;;;;-143.10;60.05;50803.16;5043383;28;20045;-66
2022/06/27 11:22:31;;;;;;;30.83;17.67;;;;;;;-143.10;61.62;50830.56;5042840;28;20143;-66
2022/06/27 11:25:14;;;;;;;29.10;16.60;;;;;;;-143.10;64.20;50826.66;5043278;28;20455;-66
2022/06/27 11:34:23;;;;;;;30.13;17.77;;;;;;;-143.10;61.48;50844.28;5042753;28;20060;-67
2022/06/27 11:37:21;;;;;;;36.40;16.95;;;;;;;-143.10;61.90;50824.69;5043440;28;20552;-65
2022/06/27 11:40:07;;;;;;;33.10;17.15;;;;;;;-143.10;61.33;50820.78;5043691;28;20157;-65
2022/06/27 11:42:56;;;;;;;32.75;17.27;;;;;;;-143.10;59.70;50836.44;5022750;28;20092;-68
2022/06/27 11:45:50;;;;;;;33.50;18.15;;;;;;;-143.10;58.80;50844.28;5042604;28;20805;-67
2022/06/27 11:48:50;;;;;;;25.80;16.58;;;;;;;-143.10;62.22;50842.31;5040177;28;20140;-67
2022/06/27 11:51:55;;;;;;;30.02;16.40;;;;;;;-143.10;62.27;50867.75;5043510;28;20137;-66
2022/06/27 11:54:53;;;;;;;28.17;17.50;;;;;;;-143.10;60.77;50854.06;5043001;28;20045;-67
2022/06/27 11:57:32;;;;;;;35.92;18.42;;;;;;;-143.10;63.20;50838.41;5027354;28;20465;-66
2022/06/27 12:00:23;;;;;;;35.90;17.80;;;;;;;-143.10;62.12;50854.06;5041447;28;20063;-65
2022/06/27 12:03:15;;;;;;;35.95;17.20;;;;;;;-143.10;60.07;50846.22;5024089;28;20126;-65
2022/06/27 12:06:21;;;;;;;30.13;17.38;;;;;;;-143.10;63.19;50854.06;5017351;28;20436;-65
2022/06/27 12:09:09;;;;;;;28.55;17.25;;;;;;;-143.10;65.07;50818.81;5027234;28;20540;-66
2022/06/27 12:12:06;;;;;;;29.42;16.58;;;;;;;-143.10;59.83;50842.31;5023721;28;20045;-66
2022/06/27 12:14:50;;;;;;;37.17;17.15;;;;;;;-143.10;60.52;50811.00;4986768;28;20038;-66
2022/06/27 12:17:39;;;;;;;27.83;16.80;;;;;;;-143.10;60.61;50848.19;4997761;28;20069;-66
2022/06/27 12:20:28;;;;;;;23.88;15.43;;;;;;;-143.10;62.04;50811.00;4992267;28;20137;-66
2022/06/27 12:23:12;;;;;;;31.10;16.52;;;;;;;-143.10;62.49;50859.94;4991779;28;20053;-67
2022/06/27 12:26:01;;;;;;;35.08;16.92;;;;;;;-143.10;61.50;50830.56;5023749;28;20104;-66
2022/06/27 12:28:43;;;;;;;37.97;16.88;;;;;;;-143.10;61.04;50826.66;5011358;28;20055;-65
2022/06/27 12:31:32;;;;;;;30.73;16.30;;;;;;;-143.10;61.93;50861.88;5027136;28;20444;-69
2022/06/27 12:34:21;;;;;;;32.67;16.73;;;;;;;-143.10;61.55;50842.31;5019777;28;20057;-67
2022/06/27 12:37:03;;;;;;;34.55;16.60;;;;;;;-143.10;64.24;50834.47;5010359;28;20056;-66
2022/06/27 12:39:52;;;;;;;29.38;16.63;;;;;;;-143.10;63.53;50832.53;5026406;28;20497;-66
2022/06/27 12:42:34;;;;;;;21.95;16.10;;;;;;;-143.10;62.60;50842.31;5011120;28;20045;-65
2022/06/27 12:45:24;;;;;;;28.40;16.33;;;;;;;-143.10;63.35;50832.53;5026942;28;20131;-66
2022/06/27 12:48:11;;;;;;;34.20;18.58;;;;;;;-143.10;61.73;50842.31;5028035;28;20525;-65
2022/06/27 12:51:07;;;;;;;24.48;16.30;;;;;;;-143.10;62.51;50840.34;5047688;28;20114;-66